sensor_id;sensor_type;location;lat;lon;timestamp;pressure;altitude;pressure_sealevel;temperature;humidity
61357;BME280;47227;46.752;23.576;2023-12-20T00:01:47;96601.79;;;-4.02;96.57
61357;BME280;47227;46.752;23.576;2023-12-20T00:04:16;96600.42;;;-4.00;96.69
61357;BME280;47227;46.752;23.576;2023-12-20T00:06:44;96596.20;;;-4.00;96.56
61357;BME280;47227;46.752;23.576;2023-12-20T00:09:15;96595.40;;;-4.08;96.32
61357;BME280;47227;46.752;23.576;2023-12-20T00:11:43;96586.29;;;-4.11;96.10
61357;BME280;47227;46.752;23.576;2023-12-20T00:14:12;96587.92;;;-4.14;95.90
61357;BME280;47227;46.752;23.576;2023-12-20T00:16:40;96582.96;;;-4.16;96.10
61357;BME280;47227;46.752;23.576;2023-12-20T00:19:09;96583.91;;;-4.20;96.19
61357;BME280;47227;46.752;23.576;2023-12-20T00:21:37;96580.71;;;-4.33;96.11
61357;BME280;47227;46.752;23.576;2023-12-20T00:24:06;96583.27;;;-4.37;96.20
61357;BME280;47227;46.752;23.576;2023-12-20T00:26:34;96576.13;;;-4.39;96.18
61357;BME280;47227;46.752;23.576;2023-12-20T00:29:03;96574.22;;;-4.40;96.20
61357;BME280;47227;46.752;23.576;2023-12-20T00:31:31;96574.05;;;-4.40;96.28
61357;BME280;47227;46.752;23.576;2023-12-20T00:34:00;96570.98;;;-4.42;96.35
61357;BME280;47227;46.752;23.576;2023-12-20T00:36:29;96569.38;;;-4.45;96.26
61357;BME280;47227;46.752;23.576;2023-12-20T00:38:57;96567.22;;;-4.45;96.71
61357;BME280;47227;46.752;23.576;2023-12-20T00:41:26;96561.73;;;-4.45;96.41
61357;BME280;47227;46.752;23.576;2023-12-20T00:43:55;96557.63;;;-4.49;96.97
61357;BME280;47227;46.752;23.576;2023-12-20T00:46:23;96553.35;;;-4.50;96.63
61357;BME280;47227;46.752;23.576;2023-12-20T00:48:52;96550.02;;;-4.51;97.30
61357;BME280;47227;46.752;23.576;2023-12-20T00:51:20;96545.73;;;-4.54;97.60
61357;BME280;47227;46.752;23.576;2023-12-20T00:53:50;96543.14;;;-4.54;97.47
61357;BME280;47227;46.752;23.576;2023-12-20T00:56:22;96536.60;;;-4.52;97.04
61357;BME280;47227;46.752;23.576;2023-12-20T00:58:52;96530.77;;;-4.50;96.87
61357;BME280;47227;46.752;23.576;2023-12-20T01:01:21;96526.52;;;-4.50;97.10
61357;BME280;47227;46.752;23.576;2023-12-20T01:03:50;96522.15;;;-4.50;97.54
61357;BME280;47227;46.752;23.576;2023-12-20T01:06:19;96523.23;;;-4.53;97.76
61357;BME280;47227;46.752;23.576;2023-12-20T01:08:48;96527.80;;;-4.56;98.04
61357;BME280;47227;46.752;23.576;2023-12-20T01:11:16;96521.36;;;-4.53;97.51
61357;BME280;47227;46.752;23.576;2023-12-20T01:13:45;96521.98;;;-4.47;97.81
61357;BME280;47227;46.752;23.576;2023-12-20T01:16:13;96520.32;;;-4.44;97.65
61357;BME280;47227;46.752;23.576;2023-12-20T01:18:42;96520.11;;;-4.43;97.67
61357;BME280;47227;46.752;23.576;2023-12-20T01:21:10;96513.27;;;-4.45;97.81
61357;BME280;47227;46.752;23.576;2023-12-20T01:23:39;96504.41;;;-4.42;97.89
61357;BME280;47227;46.752;23.576;2023-12-20T01:26:08;96498.40;;;-4.36;97.66
61357;BME280;47227;46.752;23.576;2023-12-20T01:28:36;96498.86;;;-4.35;97.16
61357;BME280;47227;46.752;23.576;2023-12-20T01:31:05;96495.91;;;-4.42;96.94
61357;BME280;47227;46.752;23.576;2023-12-20T01:33:34;96490.29;;;-4.39;96.77
61357;BME280;47227;46.752;23.576;2023-12-20T01:36:03;96483.45;;;-4.39;96.91
61357;BME280;47227;46.752;23.576;2023-12-20T01:38:32;96477.79;;;-4.44;96.79
61357;BME280;47227;46.752;23.576;2023-12-20T01:41:00;96476.18;;;-4.50;96.65
61357;BME280;47227;46.752;23.576;2023-12-20T01:43:29;96468.02;;;-4.66;96.64
61357;BME280;47227;46.752;23.576;2023-12-20T01:46:07;96461.28;;;-4.76;96.71
61357;BME280;47227;46.752;23.576;2023-12-20T01:48:36;96458.92;;;-4.85;96.71
61357;BME280;47227;46.752;23.576;2023-12-20T01:51:06;96452.02;;;-5.02;97.57
61357;BME280;47227;46.752;23.576;2023-12-20T01:53:35;96450.64;;;-5.13;97.72
61357;BME280;47227;46.752;23.576;2023-12-20T01:56:04;96447.61;;;-5.13;97.46
61357;BME280;47227;46.752;23.576;2023-12-20T01:58:33;96439.40;;;-5.11;97.27
61357;BME280;47227;46.752;23.576;2023-12-20T02:01:02;96430.73;;;-5.08;97.22
61357;BME280;47227;46.752;23.576;2023-12-20T02:03:30;96424.70;;;-5.04;97.38
61357;BME280;47227;46.752;23.576;2023-12-20T02:05:59;96423.90;;;-4.97;97.40
61357;BME280;47227;46.752;23.576;2023-12-20T02:08:27;96416.05;;;-4.92;97.36
61357;BME280;47227;46.752;23.576;2023-12-20T02:10:56;96412.35;;;-4.91;97.00
61357;BME280;47227;46.752;23.576;2023-12-20T02:13:24;96408.41;;;-4.88;97.03
61357;BME280;47227;46.752;23.576;2023-12-20T02:15:55;96403.13;;;-4.89;96.53
61357;BME280;47227;46.752;23.576;2023-12-20T02:18:23;96394.66;;;-4.88;96.68
61357;BME280;47227;46.752;23.576;2023-12-20T02:20:52;96384.66;;;-4.87;96.81
61357;BME280;47227;46.752;23.576;2023-12-20T02:23:21;96378.92;;;-4.89;96.66
61357;BME280;47227;46.752;23.576;2023-12-20T02:25:50;96377.05;;;-4.87;96.78
61357;BME280;47227;46.752;23.576;2023-12-20T02:28:18;96371.52;;;-4.81;96.97
61357;BME280;47227;46.752;23.576;2023-12-20T02:30:47;96366.10;;;-4.76;97.11
61357;BME280;47227;46.752;23.576;2023-12-20T02:33:17;96362.27;;;-4.73;96.96
61357;BME280;47227;46.752;23.576;2023-12-20T02:35:46;96357.23;;;-4.74;96.85
61357;BME280;47227;46.752;23.576;2023-12-20T02:38:15;96349.52;;;-4.76;96.81
61357;BME280;47227;46.752;23.576;2023-12-20T02:40:44;96340.29;;;-4.79;96.89
61357;BME280;47227;46.752;23.576;2023-12-20T02:43:17;96342.61;;;-4.80;96.84
61357;BME280;47227;46.752;23.576;2023-12-20T02:45:45;96340.06;;;-4.86;96.59
61357;BME280;47227;46.752;23.576;2023-12-20T02:48:14;96342.10;;;-4.94;96.76
61357;BME280;47227;46.752;23.576;2023-12-20T02:50:42;96342.11;;;-4.99;96.43
61357;BME280;47227;46.752;23.576;2023-12-20T02:53:11;96339.61;;;-5.06;96.56
61357;BME280;47227;46.752;23.576;2023-12-20T02:55:39;96340.35;;;-5.06;96.55
61357;BME280;47227;46.752;23.576;2023-12-20T02:58:08;96340.08;;;-5.08;96.61
61357;BME280;47227;46.752;23.576;2023-12-20T03:00:36;96341.79;;;-5.10;96.46
61357;BME280;47227;46.752;23.576;2023-12-20T03:03:05;96340.27;;;-5.16;96.22
61357;BME280;47227;46.752;23.576;2023-12-20T03:05:33;96338.27;;;-5.20;96.12
61357;BME280;47227;46.752;23.576;2023-12-20T03:08:02;96335.95;;;-5.22;96.15
61357;BME280;47227;46.752;23.576;2023-12-20T03:10:31;96336.57;;;-5.25;96.04
61357;BME280;47227;46.752;23.576;2023-12-20T03:12:59;96334.95;;;-5.30;95.92
61357;BME280;47227;46.752;23.576;2023-12-20T03:15:28;96329.70;;;-5.34;95.81
61357;BME280;47227;46.752;23.576;2023-12-20T03:17:56;96325.91;;;-5.37;95.64
61357;BME280;47227;46.752;23.576;2023-12-20T03:20:27;96323.23;;;-5.39;95.72
61357;BME280;47227;46.752;23.576;2023-12-20T03:22:56;96321.04;;;-5.43;96.19
61357;BME280;47227;46.752;23.576;2023-12-20T03:25:24;96314.64;;;-5.47;95.87
61357;BME280;47227;46.752;23.576;2023-12-20T03:27:53;96311.55;;;-5.52;95.97
61357;BME280;47227;46.752;23.576;2023-12-20T03:30:21;96306.61;;;-5.56;95.89
61357;BME280;47227;46.752;23.576;2023-12-20T03:32:49;96307.23;;;-5.59;96.10
61357;BME280;47227;46.752;23.576;2023-12-20T03:35:18;96305.95;;;-5.61;96.12
61357;BME280;47227;46.752;23.576;2023-12-20T03:37:47;96307.34;;;-5.62;96.27
61357;BME280;47227;46.752;23.576;2023-12-20T03:40:16;96308.75;;;-5.66;96.72
61357;BME280;47227;46.752;23.576;2023-12-20T03:42:44;96308.66;;;-5.67;96.92
61357;BME280;47227;46.752;23.576;2023-12-20T03:45:13;96308.09;;;-5.64;96.45
61357;BME280;47227;46.752;23.576;2023-12-20T03:47:41;96308.74;;;-5.58;96.61
61357;BME280;47227;46.752;23.576;2023-12-20T03:50:11;96305.80;;;-5.53;96.56
61357;BME280;47227;46.752;23.576;2023-12-20T03:52:39;96302.44;;;-5.47;97.03
61357;BME280;47227;46.752;23.576;2023-12-20T03:55:07;96295.66;;;-5.43;96.79
61357;BME280;47227;46.752;23.576;2023-12-20T03:57:36;96291.88;;;-5.37;96.43
61357;BME280;47227;46.752;23.576;2023-12-20T04:00:07;96288.77;;;-5.30;96.74
61357;BME280;47227;46.752;23.576;2023-12-20T04:02:41;96282.02;;;-5.27;96.65
61357;BME280;47227;46.752;23.576;2023-12-20T04:05:10;96276.78;;;-5.31;96.65
61357;BME280;47227;46.752;23.576;2023-12-20T04:07:39;96271.08;;;-5.29;96.70
61357;BME280;47227;46.752;23.576;2023-12-20T04:10:08;96266.27;;;-5.24;96.63
61357;BME280;47227;46.752;23.576;2023-12-20T04:12:37;96263.90;;;-5.19;96.76
61357;BME280;47227;46.752;23.576;2023-12-20T04:15:06;96260.23;;;-5.11;96.84
61357;BME280;47227;46.752;23.576;2023-12-20T04:17:38;96255.60;;;-5.08;96.64
61357;BME280;47227;46.752;23.576;2023-12-20T04:20:07;96250.33;;;-5.06;96.72
61357;BME280;47227;46.752;23.576;2023-12-20T04:22:36;96251.58;;;-5.02;96.58
61357;BME280;47227;46.752;23.576;2023-12-20T04:25:05;96251.76;;;-5.00;96.66
61357;BME280;47227;46.752;23.576;2023-12-20T04:27:33;96249.45;;;-4.99;96.50
61357;BME280;47227;46.752;23.576;2023-12-20T04:30:02;96244.20;;;-5.02;96.37
61357;BME280;47227;46.752;23.576;2023-12-20T04:32:31;96241.30;;;-5.15;96.21
61357;BME280;47227;46.752;23.576;2023-12-20T04:34:59;96240.10;;;-5.27;96.08
61357;BME280;47227;46.752;23.576;2023-12-20T04:37:28;96235.98;;;-5.27;95.98
61357;BME280;47227;46.752;23.576;2023-12-20T04:39:56;96234.73;;;-5.24;96.03
61357;BME280;47227;46.752;23.576;2023-12-20T04:42:25;96231.34;;;-5.27;96.26
61357;BME280;47227;46.752;23.576;2023-12-20T04:44:54;96230.25;;;-5.27;95.89
61357;BME280;47227;46.752;23.576;2023-12-20T04:47:22;96227.37;;;-5.29;95.78
61357;BME280;47227;46.752;23.576;2023-12-20T04:49:51;96223.51;;;-5.33;95.79
61357;BME280;47227;46.752;23.576;2023-12-20T04:52:19;96224.33;;;-5.40;95.97
61357;BME280;47227;46.752;23.576;2023-12-20T04:54:48;96221.48;;;-5.46;95.92
61357;BME280;47227;46.752;23.576;2023-12-20T04:57:17;96217.38;;;-5.46;95.84
61357;BME280;47227;46.752;23.576;2023-12-20T04:59:45;96212.80;;;-5.50;95.88
61357;BME280;47227;46.752;23.576;2023-12-20T05:02:13;96208.54;;;-5.53;95.67
61357;BME280;47227;46.752;23.576;2023-12-20T05:04:42;96212.52;;;-5.55;95.89
61357;BME280;47227;46.752;23.576;2023-12-20T05:07:10;96212.13;;;-5.64;96.34
61357;BME280;47227;46.752;23.576;2023-12-20T05:09:39;96209.51;;;-5.72;96.13
61357;BME280;47227;46.752;23.576;2023-12-20T05:12:08;96209.04;;;-5.78;95.97
61357;BME280;47227;46.752;23.576;2023-12-20T05:14:36;96210.55;;;-5.83;95.68
61357;BME280;47227;46.752;23.576;2023-12-20T05:17:05;96204.13;;;-5.91;96.29
61357;BME280;47227;46.752;23.576;2023-12-20T05:19:33;96205.02;;;-5.93;96.05
61357;BME280;47227;46.752;23.576;2023-12-20T05:22:05;96201.94;;;-5.94;96.11
61357;BME280;47227;46.752;23.576;2023-12-20T05:24:33;96198.34;;;-6.01;96.30
61357;BME280;47227;46.752;23.576;2023-12-20T05:27:02;96197.20;;;-6.01;95.92
61357;BME280;47227;46.752;23.576;2023-12-20T05:29:31;96193.53;;;-5.99;96.12
61357;BME280;47227;46.752;23.576;2023-12-20T05:31:59;96194.08;;;-5.97;96.21
61357;BME280;47227;46.752;23.576;2023-12-20T05:34:28;96195.90;;;-5.93;96.27
61357;BME280;47227;46.752;23.576;2023-12-20T05:36:57;96194.95;;;-5.87;96.12
61357;BME280;47227;46.752;23.576;2023-12-20T05:39:26;96184.70;;;-5.83;95.95
61357;BME280;47227;46.752;23.576;2023-12-20T05:41:55;96182.92;;;-5.77;96.17
61357;BME280;47227;46.752;23.576;2023-12-20T05:44:23;96187.43;;;-5.73;96.29
61357;BME280;47227;46.752;23.576;2023-12-20T05:46:51;96180.52;;;-5.72;96.04
61357;BME280;47227;46.752;23.576;2023-12-20T05:49:20;96179.70;;;-5.69;96.51
61357;BME280;47227;46.752;23.576;2023-12-20T05:51:50;96176.79;;;-5.67;96.39
61357;BME280;47227;46.752;23.576;2023-12-20T05:54:19;96176.73;;;-5.66;96.43
61357;BME280;47227;46.752;23.576;2023-12-20T05:56:48;96170.36;;;-5.62;96.09
61357;BME280;47227;46.752;23.576;2023-12-20T05:59:17;96170.16;;;-5.59;96.16
61357;BME280;47227;46.752;23.576;2023-12-20T06:01:45;96167.76;;;-5.59;96.24
61357;BME280;47227;46.752;23.576;2023-12-20T06:04:14;96165.77;;;-5.56;96.09
61357;BME280;47227;46.752;23.576;2023-12-20T06:06:43;96159.42;;;-5.54;96.26
61357;BME280;47227;46.752;23.576;2023-12-20T06:09:12;96158.59;;;-5.54;96.13
61357;BME280;47227;46.752;23.576;2023-12-20T06:11:40;96160.90;;;-5.54;96.37
61357;BME280;47227;46.752;23.576;2023-12-20T06:14:09;96159.46;;;-5.55;96.35
61357;BME280;47227;46.752;23.576;2023-12-20T06:16:37;96160.25;;;-5.59;96.17
61357;BME280;47227;46.752;23.576;2023-12-20T06:19:06;96158.37;;;-5.59;96.14
61357;BME280;47227;46.752;23.576;2023-12-20T06:21:34;96156.88;;;-5.63;96.12
61357;BME280;47227;46.752;23.576;2023-12-20T06:24:05;96156.94;;;-5.64;96.04
61357;BME280;47227;46.752;23.576;2023-12-20T06:26:34;96156.03;;;-5.61;96.19
61357;BME280;47227;46.752;23.576;2023-12-20T06:29:02;96152.48;;;-5.63;96.33
61357;BME280;47227;46.752;23.576;2023-12-20T06:31:31;96154.80;;;-5.68;96.12
61357;BME280;47227;46.752;23.576;2023-12-20T06:34:01;96154.55;;;-5.71;96.42
61357;BME280;47227;46.752;23.576;2023-12-20T06:36:30;96154.65;;;-5.72;96.04
61357;BME280;47227;46.752;23.576;2023-12-20T06:38:58;96153.39;;;-5.74;96.19
61357;BME280;47227;46.752;23.576;2023-12-20T06:41:27;96148.89;;;-5.81;96.15
61357;BME280;47227;46.752;23.576;2023-12-20T06:43:56;96154.98;;;-5.84;96.29
61357;BME280;47227;46.752;23.576;2023-12-20T06:46:25;96158.85;;;-5.85;96.37
61357;BME280;47227;46.752;23.576;2023-12-20T06:48:53;96159.27;;;-5.90;96.54
61357;BME280;47227;46.752;23.576;2023-12-20T06:51:22;96158.73;;;-5.93;96.85
61357;BME280;47227;46.752;23.576;2023-12-20T06:53:53;96160.70;;;-5.94;96.99
61357;BME280;47227;46.752;23.576;2023-12-20T06:56:22;96156.61;;;-5.94;96.77
61357;BME280;47227;46.752;23.576;2023-12-20T06:58:51;96159.98;;;-5.92;97.06
61357;BME280;47227;46.752;23.576;2023-12-20T07:01:19;96161.12;;;-5.90;97.14
61357;BME280;47227;46.752;23.576;2023-12-20T07:03:51;96157.30;;;-5.85;97.22
61357;BME280;47227;46.752;23.576;2023-12-20T07:06:19;96154.66;;;-5.81;97.31
61357;BME280;47227;46.752;23.576;2023-12-20T07:08:51;96147.83;;;-5.77;97.27
61357;BME280;47227;46.752;23.576;2023-12-20T07:11:20;96143.69;;;-5.73;97.44
61357;BME280;47227;46.752;23.576;2023-12-20T07:13:49;96144.65;;;-5.67;97.62
61357;BME280;47227;46.752;23.576;2023-12-20T07:16:18;96141.02;;;-5.59;97.42
61357;BME280;47227;46.752;23.576;2023-12-20T07:18:46;96142.10;;;-5.53;97.36
61357;BME280;47227;46.752;23.576;2023-12-20T07:21:15;96139.95;;;-5.43;97.00
61357;BME280;47227;46.752;23.576;2023-12-20T07:23:44;96135.89;;;-5.33;97.19
61357;BME280;47227;46.752;23.576;2023-12-20T07:26:13;96141.23;;;-5.25;97.40
61357;BME280;47227;46.752;23.576;2023-12-20T07:28:41;96136.89;;;-5.21;97.13
61357;BME280;47227;46.752;23.576;2023-12-20T07:31:10;96132.36;;;-5.11;96.91
61357;BME280;47227;46.752;23.576;2023-12-20T07:33:39;96127.17;;;-5.04;96.84
61357;BME280;47227;46.752;23.576;2023-12-20T07:36:08;96124.30;;;-4.97;96.77
61357;BME280;47227;46.752;23.576;2023-12-20T07:38:37;96122.54;;;-4.91;96.77
61357;BME280;47227;46.752;23.576;2023-12-20T07:41:05;96125.48;;;-4.89;96.37
61357;BME280;47227;46.752;23.576;2023-12-20T07:43:34;96118.48;;;-4.84;96.22
61357;BME280;47227;46.752;23.576;2023-12-20T07:46:07;96117.52;;;-4.76;96.63
61357;BME280;47227;46.752;23.576;2023-12-20T07:48:36;96112.91;;;-4.70;96.14
61357;BME280;47227;46.752;23.576;2023-12-20T07:51:05;96111.55;;;-4.65;96.22
61357;BME280;47227;46.752;23.576;2023-12-20T07:53:37;96113.01;;;-4.56;96.49
61357;BME280;47227;46.752;23.576;2023-12-20T07:56:17;96111.22;;;-4.55;95.41
61357;BME280;47227;46.752;23.576;2023-12-20T07:58:46;96103.67;;;-4.57;95.27
61357;BME280;47227;46.752;23.576;2023-12-20T08:01:20;96098.77;;;-4.57;95.58
61357;BME280;47227;46.752;23.576;2023-12-20T08:03:50;96099.23;;;-4.56;95.45
61357;BME280;47227;46.752;23.576;2023-12-20T08:06:19;96097.50;;;-4.51;96.12
61357;BME280;47227;46.752;23.576;2023-12-20T08:08:48;96100.23;;;-4.46;96.07
61357;BME280;47227;46.752;23.576;2023-12-20T08:11:29;96103.91;;;-4.49;95.51
61357;BME280;47227;46.752;23.576;2023-12-20T08:13:58;96102.11;;;-4.55;94.91
61357;BME280;47227;46.752;23.576;2023-12-20T08:16:26;96102.16;;;-4.60;94.77
61357;BME280;47227;46.752;23.576;2023-12-20T08:18:55;96100.02;;;-4.58;95.01
61357;BME280;47227;46.752;23.576;2023-12-20T08:21:24;96097.11;;;-4.54;95.13
61357;BME280;47227;46.752;23.576;2023-12-20T08:23:52;96096.54;;;-4.54;95.32
61357;BME280;47227;46.752;23.576;2023-12-20T08:26:21;96092.45;;;-4.56;95.17
61357;BME280;47227;46.752;23.576;2023-12-20T08:28:51;96088.73;;;-4.58;94.88
61357;BME280;47227;46.752;23.576;2023-12-20T08:31:19;96088.38;;;-4.57;95.03
61357;BME280;47227;46.752;23.576;2023-12-20T08:33:49;96085.75;;;-4.58;95.25
61357;BME280;47227;46.752;23.576;2023-12-20T08:36:19;96086.73;;;-4.57;94.96
61357;BME280;47227;46.752;23.576;2023-12-20T08:38:49;96084.12;;;-4.54;95.06
61357;BME280;47227;46.752;23.576;2023-12-20T08:41:18;96080.89;;;-4.52;94.87
61357;BME280;47227;46.752;23.576;2023-12-20T08:43:48;96078.14;;;-4.54;95.01
61357;BME280;47227;46.752;23.576;2023-12-20T08:46:17;96078.63;;;-4.53;95.03
61357;BME280;47227;46.752;23.576;2023-12-20T08:48:46;96070.92;;;-4.48;95.35
61357;BME280;47227;46.752;23.576;2023-12-20T08:51:15;96066.23;;;-4.41;95.47
61357;BME280;47227;46.752;23.576;2023-12-20T08:53:43;96061.20;;;-4.35;95.47
61357;BME280;47227;46.752;23.576;2023-12-20T08:56:14;96058.65;;;-4.30;95.54
61357;BME280;47227;46.752;23.576;2023-12-20T08:58:42;96050.91;;;-4.28;94.92
61357;BME280;47227;46.752;23.576;2023-12-20T09:01:11;96046.33;;;-4.25;94.90
61357;BME280;47227;46.752;23.576;2023-12-20T09:03:40;96041.71;;;-4.20;95.05
61357;BME280;47227;46.752;23.576;2023-12-20T09:06:09;96040.02;;;-4.07;95.64
61357;BME280;47227;46.752;23.576;2023-12-20T09:08:37;96029.95;;;-3.98;95.20
61357;BME280;47227;46.752;23.576;2023-12-20T09:11:06;96025.52;;;-3.88;94.71
61357;BME280;47227;46.752;23.576;2023-12-20T09:13:35;96019.51;;;-3.77;94.37
61357;BME280;47227;46.752;23.576;2023-12-20T09:16:04;96011.04;;;-3.71;93.03
61357;BME280;47227;46.752;23.576;2023-12-20T09:18:32;96006.91;;;-3.62;93.04
61357;BME280;47227;46.752;23.576;2023-12-20T09:21:01;96005.99;;;-3.56;92.60
61357;BME280;47227;46.752;23.576;2023-12-20T09:23:30;95999.11;;;-3.46;92.96
61357;BME280;47227;46.752;23.576;2023-12-20T09:25:59;95995.12;;;-3.30;93.40
61357;BME280;47227;46.752;23.576;2023-12-20T09:28:27;95988.50;;;-3.16;93.47
61357;BME280;47227;46.752;23.576;2023-12-20T09:30:56;95988.26;;;-3.04;92.85
61357;BME280;47227;46.752;23.576;2023-12-20T09:33:24;95980.48;;;-2.90;93.71
61357;BME280;47227;46.752;23.576;2023-12-20T09:35:53;95976.09;;;-2.81;93.40
61357;BME280;47227;46.752;23.576;2023-12-20T09:38:22;95975.02;;;-2.73;93.65
61357;BME280;47227;46.752;23.576;2023-12-20T09:40:50;95975.35;;;-2.67;92.77
61357;BME280;47227;46.752;23.576;2023-12-20T09:43:20;95974.80;;;-2.65;92.90
61357;BME280;47227;46.752;23.576;2023-12-20T09:45:52;95961.98;;;-2.59;93.42
61357;BME280;47227;46.752;23.576;2023-12-20T09:48:21;95959.33;;;-2.53;93.42
61357;BME280;47227;46.752;23.576;2023-12-20T09:50:50;95953.71;;;-2.54;93.06
61357;BME280;47227;46.752;23.576;2023-12-20T09:53:22;95951.84;;;-2.60;90.80
61357;BME280;47227;46.752;23.576;2023-12-20T09:55:52;95949.92;;;-2.64;91.01
61357;BME280;47227;46.752;23.576;2023-12-20T09:58:21;95943.20;;;-2.56;92.55
61357;BME280;47227;46.752;23.576;2023-12-20T10:00:50;95943.68;;;-2.49;92.41
61357;BME280;47227;46.752;23.576;2023-12-20T10:03:24;95934.34;;;-2.43;92.84
61357;BME280;47227;46.752;23.576;2023-12-20T10:05:57;95927.20;;;-2.34;93.37
61357;BME280;47227;46.752;23.576;2023-12-20T10:08:26;95930.08;;;-2.29;92.92
61357;BME280;47227;46.752;23.576;2023-12-20T10:10:55;95925.40;;;-2.25;93.21
61357;BME280;47227;46.752;23.576;2023-12-20T10:13:26;95924.56;;;-2.20;93.41
61357;BME280;47227;46.752;23.576;2023-12-20T10:15:55;95924.78;;;-2.16;93.57
61357;BME280;47227;46.752;23.576;2023-12-20T10:18:24;95925.98;;;-2.10;93.50
61357;BME280;47227;46.752;23.576;2023-12-20T10:21:06;95922.13;;;-2.08;93.27
61357;BME280;47227;46.752;23.576;2023-12-20T10:23:39;95921.44;;;-2.03;93.32
61357;BME280;47227;46.752;23.576;2023-12-20T10:26:08;95922.63;;;-2.00;93.34
61357;BME280;47227;46.752;23.576;2023-12-20T10:28:38;95920.71;;;-1.98;93.11
61357;BME280;47227;46.752;23.576;2023-12-20T10:31:07;95913.98;;;-1.99;92.58
61357;BME280;47227;46.752;23.576;2023-12-20T10:33:36;95910.25;;;-1.98;92.75
61357;BME280;47227;46.752;23.576;2023-12-20T10:36:05;95899.95;;;-1.95;92.86
61357;BME280;47227;46.752;23.576;2023-12-20T10:38:36;95898.66;;;-1.91;92.98
61357;BME280;47227;46.752;23.576;2023-12-20T10:41:08;95895.64;;;-1.89;93.13
61357;BME280;47227;46.752;23.576;2023-12-20T10:43:38;95883.66;;;-1.86;93.05
61357;BME280;47227;46.752;23.576;2023-12-20T10:46:08;95873.24;;;-1.85;93.03
61357;BME280;47227;46.752;23.576;2023-12-20T10:48:38;95874.17;;;-1.83;93.14
61357;BME280;47227;46.752;23.576;2023-12-20T10:51:08;95865.34;;;-1.81;93.26
61357;BME280;47227;46.752;23.576;2023-12-20T10:53:38;95865.09;;;-1.76;93.05
61357;BME280;47227;46.752;23.576;2023-12-20T10:56:12;95862.88;;;-1.74;92.77
61357;BME280;47227;46.752;23.576;2023-12-20T10:58:42;95856.16;;;-1.71;92.87
61357;BME280;47227;46.752;23.576;2023-12-20T11:01:14;95853.33;;;-1.65;92.95
61357;BME280;47227;46.752;23.576;2023-12-20T11:03:53;95851.14;;;-1.63;92.57
61357;BME280;47227;46.752;23.576;2023-12-20T11:06:38;95848.39;;;-1.61;92.39
61357;BME280;47227;46.752;23.576;2023-12-20T11:09:16;95850.36;;;-1.58;92.66
61357;BME280;47227;46.752;23.576;2023-12-20T11:12:15;95845.41;;;-1.53;91.96
61357;BME280;47227;46.752;23.576;2023-12-20T11:14:48;95854.05;;;-1.46;92.43
61357;BME280;47227;46.752;23.576;2023-12-20T11:17:17;95854.77;;;-1.39;92.59
61357;BME280;47227;46.752;23.576;2023-12-20T11:22:22;95840.86;;;-1.28;92.32
61357;BME280;47227;46.752;23.576;2023-12-20T11:24:52;95837.52;;;-1.28;92.13
61357;BME280;47227;46.752;23.576;2023-12-20T11:27:21;95838.87;;;-1.29;91.66
61357;BME280;47227;46.752;23.576;2023-12-20T11:29:56;95834.34;;;-1.30;91.70
61357;BME280;47227;46.752;23.576;2023-12-20T11:37:38;95820.17;;;-1.23;90.72
61357;BME280;47227;46.752;23.576;2023-12-20T11:40:14;95815.58;;;-1.18;91.29
61357;BME280;47227;46.752;23.576;2023-12-20T11:42:48;95812.52;;;-1.11;91.30
61357;BME280;47227;46.752;23.576;2023-12-20T11:45:19;95811.02;;;-1.03;91.52
61357;BME280;47227;46.752;23.576;2023-12-20T11:47:51;95812.92;;;-0.95;91.66
61357;BME280;47227;46.752;23.576;2023-12-20T11:50:21;95803.01;;;-0.87;91.51
61357;BME280;47227;46.752;23.576;2023-12-20T11:52:52;95800.62;;;-0.77;91.56
61357;BME280;47227;46.752;23.576;2023-12-20T11:55:22;95806.65;;;-0.64;91.79
61357;BME280;47227;46.752;23.576;2023-12-20T11:57:52;95800.11;;;-0.50;92.11
61357;BME280;47227;46.752;23.576;2023-12-20T12:00:21;95800.33;;;-0.34;92.36
61357;BME280;47227;46.752;23.576;2023-12-20T12:02:56;95798.30;;;-0.19;92.20
61357;BME280;47227;46.752;23.576;2023-12-20T12:05:25;95794.20;;;-0.06;91.90
61357;BME280;47227;46.752;23.576;2023-12-20T12:07:54;95798.20;;;0.03;91.53
61357;BME280;47227;46.752;23.576;2023-12-20T12:10:23;95797.30;;;0.06;90.61
61357;BME280;47227;46.752;23.576;2023-12-20T12:12:51;95791.13;;;0.09;90.89
61357;BME280;47227;46.752;23.576;2023-12-20T12:15:21;95785.94;;;0.11;90.56
61357;BME280;47227;46.752;23.576;2023-12-20T12:17:56;95791.39;;;0.19;90.75
61357;BME280;47227;46.752;23.576;2023-12-20T12:20:25;95790.27;;;0.34;89.84
61357;BME280;47227;46.752;23.576;2023-12-20T12:23:01;95784.59;;;0.48;90.25
61357;BME280;47227;46.752;23.576;2023-12-20T12:25:31;95782.61;;;0.66;90.32
61357;BME280;47227;46.752;23.576;2023-12-20T12:28:01;95776.28;;;0.81;90.15
61357;BME280;47227;46.752;23.576;2023-12-20T12:30:30;95770.27;;;0.94;90.11
61357;BME280;47227;46.752;23.576;2023-12-20T12:33:06;95774.41;;;1.06;89.51
61357;BME280;47227;46.752;23.576;2023-12-20T12:35:35;95773.02;;;1.08;88.78
61357;BME280;47227;46.752;23.576;2023-12-20T12:38:04;95774.45;;;1.00;83.96
61357;BME280;47227;46.752;23.576;2023-12-20T12:40:35;95771.08;;;0.98;86.15
61357;BME280;47227;46.752;23.576;2023-12-20T12:43:06;95767.89;;;0.96;86.37
61357;BME280;47227;46.752;23.576;2023-12-20T12:45:35;95762.20;;;0.88;85.72
61357;BME280;47227;46.752;23.576;2023-12-20T12:48:05;95761.41;;;0.82;84.81
61357;BME280;47227;46.752;23.576;2023-12-20T12:50:34;95760.69;;;0.78;84.93
61357;BME280;47227;46.752;23.576;2023-12-20T12:53:02;95754.30;;;0.74;84.63
61357;BME280;47227;46.752;23.576;2023-12-20T12:55:31;95746.04;;;0.72;84.36
61357;BME280;47227;46.752;23.576;2023-12-20T12:58:00;95742.71;;;0.74;85.23
61357;BME280;47227;46.752;23.576;2023-12-20T13:00:29;95737.48;;;0.76;85.59
61357;BME280;47227;46.752;23.576;2023-12-20T13:02:57;95737.11;;;0.76;85.71
61357;BME280;47227;46.752;23.576;2023-12-20T13:05:26;95732.19;;;0.73;85.59
61357;BME280;47227;46.752;23.576;2023-12-20T13:07:55;95728.01;;;0.68;85.63
61357;BME280;47227;46.752;23.576;2023-12-20T13:10:23;95736.80;;;0.64;85.55